sensor_id;sensor_type;location;lat;lon;timestamp;temperature;humidity
8178;DHT22;4130;48.740;9.132;2023-02-01T00:01:46;2.90;99.90
8178;DHT22;4130;48.740;9.132;2023-02-01T00:04:13;2.80;99.90
8178;DHT22;4130;48.740;9.132;2023-02-01T00:06:39;2.80;99.90
8178;DHT22;4130;48.740;9.132;2023-02-01T00:09:06;2.80;99.90
8178;DHT22;4130;48.740;9.132;2023-02-01T00:11:33;2.80;99.90
8178;DHT22;4130;48.740;9.132;2023-02-01T00:14:01;2.80;99.90
8178;DHT22;4130;48.740;9.132;2023-02-01T00:16:29;2.80;99.90
8178;DHT22;4130;48.740;9.132;2023-02-01T00:18:59;2.80;99.90
8178;DHT22;4130;48.740;9.132;2023-02-01T00:21:26;2.80;99.90
8178;DHT22;4130;48.740;9.132;2023-02-01T00:23:53;2.90;99.90
8178;DHT22;4130;48.740;9.132;2023-02-01T00:26:25;2.80;99.90
8178;DHT22;4130;48.740;9.132;2023-02-01T00:28:53;2.80;99.90
8178;DHT22;4130;48.740;9.132;2023-02-01T00:31:21;2.80;99.90
8178;DHT22;4130;48.740;9.132;2023-02-01T00:33:48;2.80;99.90
8178;DHT22;4130;48.740;9.132;2023-02-01T00:36:15;2.80;99.90
8178;DHT22;4130;48.740;9.132;2023-02-01T00:38:42;2.80;99.90
8178;DHT22;4130;48.740;9.132;2023-02-01T00:41:12;2.90;99.90
8178;DHT22;4130;48.740;9.132;2023-02-01T00:43:39;2.80;99.90
8178;DHT22;4130;48.740;9.132;2023-02-01T00:46:07;2.90;99.90
8178;DHT22;4130;48.740;9.132;2023-02-01T00:48:36;2.90;99.90
8178;DHT22;4130;48.740;9.132;2023-02-01T00:51:04;2.90;99.90
8178;DHT22;4130;48.740;9.132;2023-02-01T00:53:32;2.90;99.90
8178;DHT22;4130;48.740;9.132;2023-02-01T00:55:59;2.90;99.90
8178;DHT22;4130;48.740;9.132;2023-02-01T00:58:26;2.90;99.90
8178;DHT22;4130;48.740;9.132;2023-02-01T01:01:01;2.90;99.90
8178;DHT22;4130;48.740;9.132;2023-02-01T01:03:29;2.90;99.90
8178;DHT22;4130;48.740;9.132;2023-02-01T01:06:01;2.90;99.90
8178;DHT22;4130;48.740;9.132;2023-02-01T01:08:28;2.90;99.90
8178;DHT22;4130;48.740;9.132;2023-02-01T01:10:55;3.00;99.90
8178;DHT22;4130;48.740;9.132;2023-02-01T01:13:22;3.00;99.90
8178;DHT22;4130;48.740;9.132;2023-02-01T01:15:49;2.90;99.90
8178;DHT22;4130;48.740;9.132;2023-02-01T01:18:16;3.00;99.90
8178;DHT22;4130;48.740;9.132;2023-02-01T01:20:43;3.00;99.90
8178;DHT22;4130;48.740;9.132;2023-02-01T01:23:11;3.00;99.90
8178;DHT22;4130;48.740;9.132;2023-02-01T01:25:38;3.00;99.90
8178;DHT22;4130;48.740;9.132;2023-02-01T01:28:06;3.00;99.90
8178;DHT22;4130;48.740;9.132;2023-02-01T01:30:33;3.00;99.90
8178;DHT22;4130;48.740;9.132;2023-02-01T01:33:00;3.00;99.90
8178;DHT22;4130;48.740;9.132;2023-02-01T01:35:29;3.00;99.90
8178;DHT22;4130;48.740;9.132;2023-02-01T01:37:56;3.00;99.90
8178;DHT22;4130;48.740;9.132;2023-02-01T01:40:24;3.00;99.90
8178;DHT22;4130;48.740;9.132;2023-02-01T01:42:51;3.00;99.90
8178;DHT22;4130;48.740;9.132;2023-02-01T01:45:24;3.00;99.90
8178;DHT22;4130;48.740;9.132;2023-02-01T01:47:53;3.00;99.90
8178;DHT22;4130;48.740;9.132;2023-02-01T01:50:24;3.00;99.90
8178;DHT22;4130;48.740;9.132;2023-02-01T01:52:52;3.10;99.90
8178;DHT22;4130;48.740;9.132;2023-02-01T01:55:24;3.10;99.90
8178;DHT22;4130;48.740;9.132;2023-02-01T01:57:55;3.10;99.90
8178;DHT22;4130;48.740;9.132;2023-02-01T02:00:23;3.10;99.90
8178;DHT22;4130;48.740;9.132;2023-02-01T02:02:54;3.10;99.90
8178;DHT22;4130;48.740;9.132;2023-02-01T02:05:23;3.10;99.90
8178;DHT22;4130;48.740;9.132;2023-02-01T02:07:52;3.10;99.90
8178;DHT22;4130;48.740;9.132;2023-02-01T02:10:19;3.00;99.90
8178;DHT22;4130;48.740;9.132;2023-02-01T02:13:08;3.10;99.90
8178;DHT22;4130;48.740;9.132;2023-02-01T02:15:37;3.10;99.90
8178;DHT22;4130;48.740;9.132;2023-02-01T02:18:12;3.10;99.90
8178;DHT22;4130;48.740;9.132;2023-02-01T02:21:04;3.10;99.90
8178;DHT22;4130;48.740;9.132;2023-02-01T02:23:58;3.20;99.90
8178;DHT22;4130;48.740;9.132;2023-02-01T02:26:51;3.20;99.90
8178;DHT22;4130;48.740;9.132;2023-02-01T02:32:47;3.20;99.90
8178;DHT22;4130;48.740;9.132;2023-02-01T02:35:27;3.20;99.90
8178;DHT22;4130;48.740;9.132;2023-02-01T02:38:02;3.20;99.90
8178;DHT22;4130;48.740;9.132;2023-02-01T02:40:34;3.20;99.90
8178;DHT22;4130;48.740;9.132;2023-02-01T02:43:07;3.30;99.90
8178;DHT22;4130;48.740;9.132;2023-02-01T02:45:59;3.30;99.90
8178;DHT22;4130;48.740;9.132;2023-02-01T02:49:02;3.30;99.90
8178;DHT22;4130;48.740;9.132;2023-02-01T02:51:35;3.30;99.90
8178;DHT22;4130;48.740;9.132;2023-02-01T02:54:24;3.40;99.90
8178;DHT22;4130;48.740;9.132;2023-02-01T02:57:14;3.30;99.90
8178;DHT22;4130;48.740;9.132;2023-02-01T03:00:01;3.30;99.90
8178;DHT22;4130;48.740;9.132;2023-02-01T03:02:46;3.30;99.90
8178;DHT22;4130;48.740;9.132;2023-02-01T03:05:34;3.20;99.90
8178;DHT22;4130;48.740;9.132;2023-02-01T03:08:08;3.20;99.90
8178;DHT22;4130;48.740;9.132;2023-02-01T03:10:42;3.10;99.90
8178;DHT22;4130;48.740;9.132;2023-02-01T03:13:13;3.10;99.90
8178;DHT22;4130;48.740;9.132;2023-02-01T03:15:43;3.10;99.90
8178;DHT22;4130;48.740;9.132;2023-02-01T03:18:15;3.10;99.90
8178;DHT22;4130;48.740;9.132;2023-02-01T03:20:47;3.10;99.90
8178;DHT22;4130;48.740;9.132;2023-02-01T03:23:19;3.20;99.90
8178;DHT22;4130;48.740;9.132;2023-02-01T03:25:47;3.10;99.90
8178;DHT22;4130;48.740;9.132;2023-02-01T03:28:15;3.10;99.90
8178;DHT22;4130;48.740;9.132;2023-02-01T03:30:48;3.20;99.90
8178;DHT22;4130;48.740;9.132;2023-02-01T03:33:18;3.20;99.90
8178;DHT22;4130;48.740;9.132;2023-02-01T03:35:54;3.20;99.90
8178;DHT22;4130;48.740;9.132;2023-02-01T03:38:29;3.20;99.90
8178;DHT22;4130;48.740;9.132;2023-02-01T03:41:02;3.20;99.90
8178;DHT22;4130;48.740;9.132;2023-02-01T03:43:34;3.20;99.90
8178;DHT22;4130;48.740;9.132;2023-02-01T03:46:06;3.20;99.90
8178;DHT22;4130;48.740;9.132;2023-02-01T03:48:35;3.10;99.90
8178;DHT22;4130;48.740;9.132;2023-02-01T03:51:04;3.10;99.90
8178;DHT22;4130;48.740;9.132;2023-02-01T03:53:35;3.20;99.90
8178;DHT22;4130;48.740;9.132;2023-02-01T03:56:07;3.00;99.90
8178;DHT22;4130;48.740;9.132;2023-02-01T03:58:37;3.10;99.90
8178;DHT22;4130;48.740;9.132;2023-02-01T04:01:04;3.10;99.90
8178;DHT22;4130;48.740;9.132;2023-02-01T04:03:31;3.10;99.90
8178;DHT22;4130;48.740;9.132;2023-02-01T04:05:57;3.10;99.90
8178;DHT22;4130;48.740;9.132;2023-02-01T04:08:24;3.10;99.90
8178;DHT22;4130;48.740;9.132;2023-02-01T04:10:52;3.10;99.90
8178;DHT22;4130;48.740;9.132;2023-02-01T04:13:19;3.10;99.90
8178;DHT22;4130;48.740;9.132;2023-02-01T04:15:47;3.10;99.90
8178;DHT22;4130;48.740;9.132;2023-02-01T04:18:15;3.10;99.90
8178;DHT22;4130;48.740;9.132;2023-02-01T04:20:42;3.10;99.90
8178;DHT22;4130;48.740;9.132;2023-02-01T04:23:09;3.10;99.90
8178;DHT22;4130;48.740;9.132;2023-02-01T04:25:36;3.10;99.90
8178;DHT22;4130;48.740;9.132;2023-02-01T04:28:04;3.10;99.90
8178;DHT22;4130;48.740;9.132;2023-02-01T04:30:32;3.30;99.90
8178;DHT22;4130;48.740;9.132;2023-02-01T04:32:59;3.20;99.90
8178;DHT22;4130;48.740;9.132;2023-02-01T04:35:25;3.20;99.90
8178;DHT22;4130;48.740;9.132;2023-02-01T04:37:52;3.20;99.90
8178;DHT22;4130;48.740;9.132;2023-02-01T04:40:19;3.30;99.90
8178;DHT22;4130;48.740;9.132;2023-02-01T04:42:45;3.20;99.90
8178;DHT22;4130;48.740;9.132;2023-02-01T04:45:14;3.30;99.90
8178;DHT22;4130;48.740;9.132;2023-02-01T04:47:40;3.30;99.90
8178;DHT22;4130;48.740;9.132;2023-02-01T04:50:08;3.30;99.90
8178;DHT22;4130;48.740;9.132;2023-02-01T04:52:36;3.30;99.90
8178;DHT22;4130;48.740;9.132;2023-02-01T04:55:04;3.40;99.90
8178;DHT22;4130;48.740;9.132;2023-02-01T04:57:30;3.40;99.90
8178;DHT22;4130;48.740;9.132;2023-02-01T04:59:57;3.40;99.90
8178;DHT22;4130;48.740;9.132;2023-02-01T05:02:25;3.50;99.90
8178;DHT22;4130;48.740;9.132;2023-02-01T05:04:52;3.50;99.90
8178;DHT22;4130;48.740;9.132;2023-02-01T05:07:21;3.50;99.90
8178;DHT22;4130;48.740;9.132;2023-02-01T05:09:47;3.50;99.90
8178;DHT22;4130;48.740;9.132;2023-02-01T05:12:14;3.50;99.90
8178;DHT22;4130;48.740;9.132;2023-02-01T05:14:58;3.50;99.90
8178;DHT22;4130;48.740;9.132;2023-02-01T05:17:26;3.60;99.90
8178;DHT22;4130;48.740;9.132;2023-02-01T05:19:53;3.50;99.90
8178;DHT22;4130;48.740;9.132;2023-02-01T05:22:20;3.50;99.90
8178;DHT22;4130;48.740;9.132;2023-02-01T05:24:46;3.50;99.90
8178;DHT22;4130;48.740;9.132;2023-02-01T05:27:13;3.60;99.90
8178;DHT22;4130;48.740;9.132;2023-02-01T05:29:40;3.50;99.90
8178;DHT22;4130;48.740;9.132;2023-02-01T05:32:09;3.50;99.90
8178;DHT22;4130;48.740;9.132;2023-02-01T05:34:37;3.60;99.90
8178;DHT22;4130;48.740;9.132;2023-02-01T05:37:04;3.60;99.90
8178;DHT22;4130;48.740;9.132;2023-02-01T05:39:30;3.60;99.90
8178;DHT22;4130;48.740;9.132;2023-02-01T05:41:57;3.60;99.90
8178;DHT22;4130;48.740;9.132;2023-02-01T05:44:24;3.60;99.90
8178;DHT22;4130;48.740;9.132;2023-02-01T05:46:51;3.50;99.90
8178;DHT22;4130;48.740;9.132;2023-02-01T05:49:18;3.50;99.90
8178;DHT22;4130;48.740;9.132;2023-02-01T05:51:46;3.40;99.90
8178;DHT22;4130;48.740;9.132;2023-02-01T05:54:13;3.40;99.90
8178;DHT22;4130;48.740;9.132;2023-02-01T05:56:40;3.30;99.90
8178;DHT22;4130;48.740;9.132;2023-02-01T05:59:07;3.30;99.90
8178;DHT22;4130;48.740;9.132;2023-02-01T06:01:33;3.30;99.90
8178;DHT22;4130;48.740;9.132;2023-02-01T06:04:00;3.30;99.90
8178;DHT22;4130;48.740;9.132;2023-02-01T06:06:27;3.20;99.90
8178;DHT22;4130;48.740;9.132;2023-02-01T06:08:55;3.20;99.90
8178;DHT22;4130;48.740;9.132;2023-02-01T06:11:22;3.10;99.90
8178;DHT22;4130;48.740;9.132;2023-02-01T06:13:49;3.00;99.90
8178;DHT22;4130;48.740;9.132;2023-02-01T06:16:15;3.00;99.90
8178;DHT22;4130;48.740;9.132;2023-02-01T06:18:42;2.90;99.90
8178;DHT22;4130;48.740;9.132;2023-02-01T06:21:09;2.90;99.90
8178;DHT22;4130;48.740;9.132;2023-02-01T06:23:36;2.90;99.90
8178;DHT22;4130;48.740;9.132;2023-02-01T06:26:06;2.90;99.90
8178;DHT22;4130;48.740;9.132;2023-02-01T06:28:33;2.90;99.90
8178;DHT22;4130;48.740;9.132;2023-02-01T06:31:03;2.90;99.90
8178;DHT22;4130;48.740;9.132;2023-02-01T06:33:32;2.90;99.90
8178;DHT22;4130;48.740;9.132;2023-02-01T06:36:00;2.90;99.90
8178;DHT22;4130;48.740;9.132;2023-02-01T06:38:29;2.90;99.90
8178;DHT22;4130;48.740;9.132;2023-02-01T06:40:57;3.00;99.90
8178;DHT22;4130;48.740;9.132;2023-02-01T06:43:26;3.00;99.90
8178;DHT22;4130;48.740;9.132;2023-02-01T06:45:53;3.00;99.90
8178;DHT22;4130;48.740;9.132;2023-02-01T06:48:20;3.10;99.90
8178;DHT22;4130;48.740;9.132;2023-02-01T06:50:47;3.10;99.90
8178;DHT22;4130;48.740;9.132;2023-02-01T06:53:14;3.20;99.90
8178;DHT22;4130;48.740;9.132;2023-02-01T06:55:40;3.20;99.90
8178;DHT22;4130;48.740;9.132;2023-02-01T06:58:07;3.20;99.90
8178;DHT22;4130;48.740;9.132;2023-02-01T07:00:35;3.30;99.90
8178;DHT22;4130;48.740;9.132;2023-02-01T07:03:02;3.30;99.90
8178;DHT22;4130;48.740;9.132;2023-02-01T07:05:29;3.30;99.90
8178;DHT22;4130;48.740;9.132;2023-02-01T07:07:55;3.30;99.90
8178;DHT22;4130;48.740;9.132;2023-02-01T07:10:22;3.30;99.90
8178;DHT22;4130;48.740;9.132;2023-02-01T07:12:49;3.40;99.90
8178;DHT22;4130;48.740;9.132;2023-02-01T07:15:16;3.40;99.90
8178;DHT22;4130;48.740;9.132;2023-02-01T07:17:44;3.40;99.90
8178;DHT22;4130;48.740;9.132;2023-02-01T07:20:12;3.40;99.90
8178;DHT22;4130;48.740;9.132;2023-02-01T07:22:39;3.40;99.90
8178;DHT22;4130;48.740;9.132;2023-02-01T07:25:06;3.40;99.90
8178;DHT22;4130;48.740;9.132;2023-02-01T07:27:34;3.40;99.90
8178;DHT22;4130;48.740;9.132;2023-02-01T07:30:00;3.40;99.90
8178;DHT22;4130;48.740;9.132;2023-02-01T07:32:28;3.40;99.90
8178;DHT22;4130;48.740;9.132;2023-02-01T07:34:56;3.50;99.90
8178;DHT22;4130;48.740;9.132;2023-02-01T07:37:23;3.50;99.90
8178;DHT22;4130;48.740;9.132;2023-02-01T07:39:50;3.50;99.90
8178;DHT22;4130;48.740;9.132;2023-02-01T07:42:17;3.50;99.90
8178;DHT22;4130;48.740;9.132;2023-02-01T07:44:44;3.50;99.90
8178;DHT22;4130;48.740;9.132;2023-02-01T07:47:11;3.50;99.90
8178;DHT22;4130;48.740;9.132;2023-02-01T07:49:37;3.60;99.90
8178;DHT22;4130;48.740;9.132;2023-02-01T07:52:05;3.60;99.90
8178;DHT22;4130;48.740;9.132;2023-02-01T07:54:32;3.70;99.90
8178;DHT22;4130;48.740;9.132;2023-02-01T07:56:59;3.70;99.90
8178;DHT22;4130;48.740;9.132;2023-02-01T07:59:26;3.70;99.90
8178;DHT22;4130;48.740;9.132;2023-02-01T08:01:52;3.80;99.90
8178;DHT22;4130;48.740;9.132;2023-02-01T08:04:18;3.80;99.90
8178;DHT22;4130;48.740;9.132;2023-02-01T08:06:45;3.90;99.90
8178;DHT22;4130;48.740;9.132;2023-02-01T08:09:13;3.90;99.90
8178;DHT22;4130;48.740;9.132;2023-02-01T08:11:40;3.90;99.90
8178;DHT22;4130;48.740;9.132;2023-02-01T08:14:07;3.90;99.90
8178;DHT22;4130;48.740;9.132;2023-02-01T08:16:34;3.90;99.90
8178;DHT22;4130;48.740;9.132;2023-02-01T08:19:02;3.90;99.90
8178;DHT22;4130;48.740;9.132;2023-02-01T08:21:29;3.90;99.90
8178;DHT22;4130;48.740;9.132;2023-02-01T08:24:03;4.00;99.90
8178;DHT22;4130;48.740;9.132;2023-02-01T08:26:31;3.90;99.90
8178;DHT22;4130;48.740;9.132;2023-02-01T08:29:00;4.00;99.90
8178;DHT22;4130;48.740;9.132;2023-02-01T08:31:28;4.00;99.90
8178;DHT22;4130;48.740;9.132;2023-02-01T08:33:56;4.00;99.90
8178;DHT22;4130;48.740;9.132;2023-02-01T08:36:24;4.10;99.90
8178;DHT22;4130;48.740;9.132;2023-02-01T08:38:51;4.10;99.90
8178;DHT22;4130;48.740;9.132;2023-02-01T08:41:20;4.20;99.90
8178;DHT22;4130;48.740;9.132;2023-02-01T08:43:48;4.30;99.90
8178;DHT22;4130;48.740;9.132;2023-02-01T08:46:16;4.50;99.90
8178;DHT22;4130;48.740;9.132;2023-02-01T08:48:43;4.60;99.90
8178;DHT22;4130;48.740;9.132;2023-02-01T08:51:13;4.70;99.90
8178;DHT22;4130;48.740;9.132;2023-02-01T08:53:40;4.80;99.90
8178;DHT22;4130;48.740;9.132;2023-02-01T08:56:09;4.80;99.90
8178;DHT22;4130;48.740;9.132;2023-02-01T08:58:36;4.90;99.90
8178;DHT22;4130;48.740;9.132;2023-02-01T09:01:05;4.90;99.90
8178;DHT22;4130;48.740;9.132;2023-02-01T09:03:32;5.00;99.90
8178;DHT22;4130;48.740;9.132;2023-02-01T09:06:00;5.00;99.90
8178;DHT22;4130;48.740;9.132;2023-02-01T09:08:27;5.00;99.90
8178;DHT22;4130;48.740;9.132;2023-02-01T09:10:57;5.00;99.90
8178;DHT22;4130;48.740;9.132;2023-02-01T09:13:24;5.00;99.90
8178;DHT22;4130;48.740;9.132;2023-02-01T09:15:51;5.00;99.90
8178;DHT22;4130;48.740;9.132;2023-02-01T09:18:19;5.00;99.90
8178;DHT22;4130;48.740;9.132;2023-02-01T09:20:46;4.90;99.90
8178;DHT22;4130;48.740;9.132;2023-02-01T09:23:13;4.90;99.90
8178;DHT22;4130;48.740;9.132;2023-02-01T09:25:39;4.80;99.90
8178;DHT22;4130;48.740;9.132;2023-02-01T09:28:06;4.80;99.90
8178;DHT22;4130;48.740;9.132;2023-02-01T09:30:34;4.80;99.90
8178;DHT22;4130;48.740;9.132;2023-02-01T09:33:02;4.90;99.90
8178;DHT22;4130;48.740;9.132;2023-02-01T09:35:30;4.90;99.90
8178;DHT22;4130;48.740;9.132;2023-02-01T09:37:57;5.00;99.90
8178;DHT22;4130;48.740;9.132;2023-02-01T09:40:23;5.10;99.90
8178;DHT22;4130;48.740;9.132;2023-02-01T09:43:10;5.30;99.90
8178;DHT22;4130;48.740;9.132;2023-02-01T09:45:48;5.50;99.90
8178;DHT22;4130;48.740;9.132;2023-02-01T09:48:20;5.60;99.90
8178;DHT22;4130;48.740;9.132;2023-02-01T09:50:53;5.60;99.90
8178;DHT22;4130;48.740;9.132;2023-02-01T09:53:24;5.70;99.90
8178;DHT22;4130;48.740;9.132;2023-02-01T09:55:55;5.70;99.90
8178;DHT22;4130;48.740;9.132;2023-02-01T09:58:29;5.80;99.90
8178;DHT22;4130;48.740;9.132;2023-02-01T10:00:58;5.90;99.90
8178;DHT22;4130;48.740;9.132;2023-02-01T10:03:28;6.00;99.90
8178;DHT22;4130;48.740;9.132;2023-02-01T10:09:11;6.00;99.90
8178;DHT22;4130;48.740;9.132;2023-02-01T10:11:49;6.10;99.90
8178;DHT22;4130;48.740;9.132;2023-02-01T10:14:38;6.10;99.90
8178;DHT22;4130;48.740;9.132;2023-02-01T10:17:12;6.00;99.90
8178;DHT22;4130;48.740;9.132;2023-02-01T10:19:50;5.90;99.90
8178;DHT22;4130;48.740;9.132;2023-02-01T10:22:35;5.90;99.90
8178;DHT22;4130;48.740;9.132;2023-02-01T10:25:12;5.80;99.90
8178;DHT22;4130;48.740;9.132;2023-02-01T10:27:40;5.80;99.90
8178;DHT22;4130;48.740;9.132;2023-02-01T10:30:18;5.70;99.90
8178;DHT22;4130;48.740;9.132;2023-02-01T10:32:47;5.70;99.90
8178;DHT22;4130;48.740;9.132;2023-02-01T10:35:18;5.80;99.90
8178;DHT22;4130;48.740;9.132;2023-02-01T10:37:46;5.90;99.90
8178;DHT22;4130;48.740;9.132;2023-02-01T10:40:17;5.90;99.90
8178;DHT22;4130;48.740;9.132;2023-02-01T10:42:47;5.90;99.90
8178;DHT22;4130;48.740;9.132;2023-02-01T10:45:17;5.90;99.90
8178;DHT22;4130;48.740;9.132;2023-02-01T10:47:44;5.90;99.90
8178;DHT22;4130;48.740;9.132;2023-02-01T10:50:27;6.30;99.90
8178;DHT22;4130;48.740;9.132;2023-02-01T10:53:01;5.90;99.90
8178;DHT22;4130;48.740;9.132;2023-02-01T10:55:35;5.90;99.90
8178;DHT22;4130;48.740;9.132;2023-02-01T10:58:05;5.90;99.90
8178;DHT22;4130;48.740;9.132;2023-02-01T11:00:52;6.00;99.90
8178;DHT22;4130;48.740;9.132;2023-02-01T11:03:32;6.00;99.90
8178;DHT22;4130;48.740;9.132;2023-02-01T11:05:59;6.00;99.90
8178;DHT22;4130;48.740;9.132;2023-02-01T11:08:28;6.10;99.90
8178;DHT22;4130;48.740;9.132;2023-02-01T11:10:58;6.10;99.90
8178;DHT22;4130;48.740;9.132;2023-02-01T11:13:29;6.30;99.90
8178;DHT22;4130;48.740;9.132;2023-02-01T11:15:57;6.50;99.90
8178;DHT22;4130;48.740;9.132;2023-02-01T11:18:27;6.40;99.90
8178;DHT22;4130;48.740;9.132;2023-02-01T11:20:54;6.30;99.90
8178;DHT22;4130;48.740;9.132;2023-02-01T11:23:23;6.30;99.90
8178;DHT22;4130;48.740;9.132;2023-02-01T11:25:53;6.20;99.90
8178;DHT22;4130;48.740;9.132;2023-02-01T11:28:22;6.20;99.90
8178;DHT22;4130;48.740;9.132;2023-02-01T11:30:51;6.20;99.90
8178;DHT22;4130;48.740;9.132;2023-02-01T11:33:24;6.10;99.90
8178;DHT22;4130;48.740;9.132;2023-02-01T11:35:55;6.10;99.90
8178;DHT22;4130;48.740;9.132;2023-02-01T11:38:27;6.10;99.90
8178;DHT22;4130;48.740;9.132;2023-02-01T11:40:57;6.10;99.90
8178;DHT22;4130;48.740;9.132;2023-02-01T11:43:37;6.20;99.90
8178;DHT22;4130;48.740;9.132;2023-02-01T11:46:18;6.30;99.90
8178;DHT22;4130;48.740;9.132;2023-02-01T11:48:50;6.20;99.90
8178;DHT22;4130;48.740;9.132;2023-02-01T11:51:27;6.10;99.90
8178;DHT22;4130;48.740;9.132;2023-02-01T11:54:10;6.10;99.90
8178;DHT22;4130;48.740;9.132;2023-02-01T11:56:46;6.20;99.90
8178;DHT22;4130;48.740;9.132;2023-02-01T11:59:28;6.30;99.90
8178;DHT22;4130;48.740;9.132;2023-02-01T12:02:19;6.30;99.90
8178;DHT22;4130;48.740;9.132;2023-02-01T12:05:10;6.20;99.90
8178;DHT22;4130;48.740;9.132;2023-02-01T12:07:53;6.10;99.90
8178;DHT22;4130;48.740;9.132;2023-02-01T12:10:29;6.00;99.90
8178;DHT22;4130;48.740;9.132;2023-02-01T12:13:11;6.00;99.90
8178;DHT22;4130;48.740;9.132;2023-02-01T12:15:54;6.00;99.90
8178;DHT22;4130;48.740;9.132;2023-02-01T12:18:43;5.90;99.90
8178;DHT22;4130;48.740;9.132;2023-02-01T12:21:23;6.00;99.90
8178;DHT22;4130;48.740;9.132;2023-02-01T12:26:50;6.10;99.90
8178;DHT22;4130;48.740;9.132;2023-02-01T12:29:35;6.00;99.90
8178;DHT22;4130;48.740;9.132;2023-02-01T12:32:21;5.90;99.90
8178;DHT22;4130;48.740;9.132;2023-02-01T12:35:03;5.80;99.90
8178;DHT22;4130;48.740;9.132;2023-02-01T12:37:51;5.70;99.90
8178;DHT22;4130;48.740;9.132;2023-02-01T12:40:28;5.60;99.90
8178;DHT22;4130;48.740;9.132;2023-02-01T12:43:02;5.60;99.90
8178;DHT22;4130;48.740;9.132;2023-02-01T12:45:34;5.60;99.90
8178;DHT22;4130;48.740;9.132;2023-02-01T12:48:17;5.70;99.90
8178;DHT22;4130;48.740;9.132;2023-02-01T12:50:50;5.60;99.90
8178;DHT22;4130;48.740;9.132;2023-02-01T12:53:22;5.60;99.90
8178;DHT22;4130;48.740;9.132;2023-02-01T12:55:52;5.60;99.90
8178;DHT22;4130;48.740;9.132;2023-02-01T12:58:24;5.60;99.90
8178;DHT22;4130;48.740;9.132;2023-02-01T13:00:59;5.60;99.90
8178;DHT22;4130;48.740;9.132;2023-02-01T13:03:34;5.50;99.90
8178;DHT22;4130;48.740;9.132;2023-02-01T13:06:05;5.50;99.90
8178;DHT22;4130;48.740;9.132;2023-02-01T13:08:40;5.50;99.90
8178;DHT22;4130;48.740;9.132;2023-02-01T13:11:11;5.50;99.90
8178;DHT22;4130;48.740;9.132;2023-02-01T13:13:46;5.50;99.90
8178;DHT22;4130;48.740;9.132;2023-02-01T13:16:19;5.60;99.90
8178;DHT22;4130;48.740;9.132;2023-02-01T13:18:51;5.60;99.90
8178;DHT22;4130;48.740;9.132;2023-02-01T13:21:23;5.50;99.90
8178;DHT22;4130;48.740;9.132;2023-02-01T13:23:52;5.50;99.90
8178;DHT22;4130;48.740;9.132;2023-02-01T13:26:19;5.40;99.90
8178;DHT22;4130;48.740;9.132;2023-02-01T13:28:47;5.40;99.90
8178;DHT22;4130;48.740;9.132;2023-02-01T13:34:47;5.60;99.90
8178;DHT22;4130;48.740;9.132;2023-02-01T13:37:29;5.40;99.90
8178;DHT22;4130;48.740;9.132;2023-02-01T13:40:16;5.50;99.90
8178;DHT22;4130;48.740;9.132;2023-02-01T13:42:48;5.50;99.90
8178;DHT22;4130;48.740;9.132;2023-02-01T13:45:18;5.50;99.90
8178;DHT22;4130;48.740;9.132;2023-02-01T13:47:48;5.50;99.90
8178;DHT22;4130;48.740;9.132;2023-02-01T13:50:23;5.50;99.90
8178;DHT22;4130;48.740;9.132;2023-02-01T13:52:54;5.50;99.90
8178;DHT22;4130;48.740;9.132;2023-02-01T13:55:33;5.40;99.90
8178;DHT22;4130;48.740;9.132;2023-02-01T13:58:11;5.40;99.90
8178;DHT22;4130;48.740;9.132;2023-02-01T14:00:40;5.40;99.90
8178;DHT22;4130;48.740;9.132;2023-02-01T14:03:12;5.40;99.90
8178;DHT22;4130;48.740;9.132;2023-02-01T14:06:05;5.40;99.90
8178;DHT22;4130;48.740;9.132;2023-02-01T14:11:37;5.40;99.90
8178;DHT22;4130;48.740;9.132;2023-02-01T14:17:39;5.50;99.90
8178;DHT22;4130;48.740;9.132;2023-02-01T14:23:29;5.50;99.90
8178;DHT22;4130;48.740;9.132;2023-02-01T14:26:08;5.50;99.90
8178;DHT22;4130;48.740;9.132;2023-02-01T14:28:39;5.50;99.90
8178;DHT22;4130;48.740;9.132;2023-02-01T14:31:22;5.50;99.90
8178;DHT22;4130;48.740;9.132;2023-02-01T14:33:55;5.50;99.90
8178;DHT22;4130;48.740;9.132;2023-02-01T14:36:23;5.60;99.90
8178;DHT22;4130;48.740;9.132;2023-02-01T14:38:52;5.60;99.90
8178;DHT22;4130;48.740;9.132;2023-02-01T14:41:30;5.50;99.90
8178;DHT22;4130;48.740;9.132;2023-02-01T14:44:34;5.50;99.90
8178;DHT22;4130;48.740;9.132;2023-02-01T14:47:32;5.40;99.90
8178;DHT22;4130;48.740;9.132;2023-02-01T14:50:27;5.40;99.90
8178;DHT22;4130;48.740;9.132;2023-02-01T14:53:15;5.40;99.90
8178;DHT22;4130;48.740;9.132;2023-02-01T14:55:48;5.40;99.90
8178;DHT22;4130;48.740;9.132;2023-02-01T14:58:21;5.40;99.90
8178;DHT22;4130;48.740;9.132;2023-02-01T15:00:54;5.40;99.90
8178;DHT22;4130;48.740;9.132;2023-02-01T15:03:43;5.40;99.90
8178;DHT22;4130;48.740;9.132;2023-02-01T15:06:25;5.40;99.90
8178;DHT22;4130;48.740;9.132;2023-02-01T15:08:55;5.40;99.90
8178;DHT22;4130;48.740;9.132;2023-02-01T15:11:24;5.40;99.90
8178;DHT22;4130;48.740;9.132;2023-02-01T15:13:52;5.40;99.90
8178;DHT22;4130;48.740;9.132;2023-02-01T15:16:22;5.40;99.90
8178;DHT22;4130;48.740;9.132;2023-02-01T15:18:49;5.40;99.90
8178;DHT22;4130;48.740;9.132;2023-02-01T15:21:18;5.40;99.90
8178;DHT22;4130;48.740;9.132;2023-02-01T15:23:46;5.40;99.90
8178;DHT22;4130;48.740;9.132;2023-02-01T15:26:26;5.40;99.90
8178;DHT22;4130;48.740;9.132;2023-02-01T15:28:53;5.40;99.90
8178;DHT22;4130;48.740;9.132;2023-02-01T15:31:32;5.30;99.90
8178;DHT22;4130;48.740;9.132;2023-02-01T15:34:00;5.20;99.90
8178;DHT22;4130;48.740;9.132;2023-02-01T15:36:26;5.30;99.90
8178;DHT22;4130;48.740;9.132;2023-02-01T15:39:13;5.00;99.90
8178;DHT22;4130;48.740;9.132;2023-02-01T15:41:46;5.00;99.90
8178;DHT22;4130;48.740;9.132;2023-02-01T15:44:20;5.10;99.90
8178;DHT22;4130;48.740;9.132;2023-02-01T15:46:49;5.10;99.90
8178;DHT22;4130;48.740;9.132;2023-02-01T15:49:20;5.20;99.90
8178;DHT22;4130;48.740;9.132;2023-02-01T15:51:49;5.30;99.90
8178;DHT22;4130;48.740;9.132;2023-02-01T15:54:17;5.30;99.90
8178;DHT22;4130;48.740;9.132;2023-02-01T15:56:50;5.20;99.90
8178;DHT22;4130;48.740;9.132;2023-02-01T15:59:21;5.20;99.90
8178;DHT22;4130;48.740;9.132;2023-02-01T16:01:49;5.30;99.90
8178;DHT22;4130;48.740;9.132;2023-02-01T16:04:19;5.30;99.90
8178;DHT22;4130;48.740;9.132;2023-02-01T16:06:48;5.30;99.90
8178;DHT22;4130;48.740;9.132;2023-02-01T16:09:17;5.30;99.90
8178;DHT22;4130;48.740;9.132;2023-02-01T16:11:54;5.30;99.90
8178;DHT22;4130;48.740;9.132;2023-02-01T16:14:21;5.30;99.90
8178;DHT22;4130;48.740;9.132;2023-02-01T16:16:48;5.30;99.90
8178;DHT22;4130;48.740;9.132;2023-02-01T16:19:15;5.30;99.90
8178;DHT22;4130;48.740;9.132;2023-02-01T16:21:42;5.30;99.90
8178;DHT22;4130;48.740;9.132;2023-02-01T16:24:09;5.30;99.90
8178;DHT22;4130;48.740;9.132;2023-02-01T16:26:35;5.20;99.90
8178;DHT22;4130;48.740;9.132;2023-02-01T16:29:05;5.20;99.90
8178;DHT22;4130;48.740;9.132;2023-02-01T16:31:35;5.20;99.90
8178;DHT22;4130;48.740;9.132;2023-02-01T16:34:02;5.20;99.90
8178;DHT22;4130;48.740;9.132;2023-02-01T16:36:30;5.20;99.90
8178;DHT22;4130;48.740;9.132;2023-02-01T16:38:57;5.10;99.90
8178;DHT22;4130;48.740;9.132;2023-02-01T16:41:25;5.20;99.90
8178;DHT22;4130;48.740;9.132;2023-02-01T16:43:54;5.10;99.90
8178;DHT22;4130;48.740;9.132;2023-02-01T16:46:24;4.90;99.90
8178;DHT22;4130;48.740;9.132;2023-02-01T16:48:54;5.10;99.90
8178;DHT22;4130;48.740;9.132;2023-02-01T16:51:21;5.10;99.90
8178;DHT22;4130;48.740;9.132;2023-02-01T16:53:49;5.10;99.90
8178;DHT22;4130;48.740;9.132;2023-02-01T16:56:17;5.10;99.90
8178;DHT22;4130;48.740;9.132;2023-02-01T16:58:44;5.10;99.90
8178;DHT22;4130;48.740;9.132;2023-02-01T17:01:14;5.10;99.90
8178;DHT22;4130;48.740;9.132;2023-02-01T17:03:42;5.10;99.90
8178;DHT22;4130;48.740;9.132;2023-02-01T17:06:12;5.10;99.90